Time;durP1;ratioP1;P1;durP2;ratioP2;P2;SDS_P1;SDS_P2;PMS_P1;PMS_P2;Temp;Humidity;BMP_temperature;BMP_pressure;BME280_temperature;BME280_humidity;BME280_pressure;Samples;Min_cycle;Max_cycle;Signal;HPM_P1;HPM_P2
2022/01/27 00:02:36;;;;;;;77.27;26.35;;;;;;;2.29;89.05;101313.87;1698579;84;21149;-74
2022/01/27 00:05:18;;;;;;;76.40;26.48;;;;;;;2.29;89.06;101299.83;1679177;84;21003;-74
2022/01/27 00:10:57;;;;;;;67.65;25.12;;;;;;;2.30;89.07;101299.88;1690096;84;21075;-74
2022/01/27 00:13:57;;;;;;;66.67;24.25;;;;;;;2.31;89.07;101291.40;1698830;82;21117;-74
2022/01/27 00:16:40;;;;;;;;;;;;;;;2.34;89.11;101290.63;1703586;84;20962;-73
2022/01/27 00:19:22;;;;;;;65.10;24.37;;;;;;;2.35;89.10;101288.52;1673153;84;20141;-74
2022/01/27 00:22:06;;;;;;;68.33;24.65;;;;;;;2.37;89.06;101294.53;1678767;84;20971;-74
2022/01/27 00:24:50;;;;;;;77.32;27.02;;;;;;;2.38;89.09;101296.67;1673005;85;21006;-74
2022/01/27 00:27:35;;;;;;;70.65;24.90;;;;;;;2.38;89.07;101300.09;1691431;84;20955;-74
2022/01/27 00:30:19;;;;;;;69.17;24.80;;;;;;;2.40;89.10;101294.63;1696217;84;20962;-74
2022/01/27 00:33:04;;;;;;;71.45;25.88;;;;;;;2.42;89.09;101289.15;1672997;84;20951;-74
2022/01/27 00:35:49;;;;;;;74.40;25.37;;;;;;;2.44;89.09;101282.81;1672834;85;20963;-74
2022/01/27 00:38:34;;;;;;;68.22;25.82;;;;;;;2.44;89.05;101288.78;1676446;84;20999;-74
2022/01/27 00:41:19;;;;;;;64.25;23.90;;;;;;;2.47;89.07;101282.90;1701194;84;20983;-74
2022/01/27 00:44:05;;;;;;;70.00;25.17;;;;;;;2.47;89.08;101273.55;1673323;84;20928;-74
2022/01/27 00:46:49;;;;;;;55.87;21.63;;;;;;;2.49;89.08;101284.67;1697963;84;21231;-74
2022/01/27 00:49:36;;;;;;;59.73;22.05;;;;;;;2.50;89.07;101285.53;1701036;84;21001;-74
2022/01/27 00:52:34;;;;;;;57.35;21.37;;;;;;;2.51;89.08;101286.85;1687547;84;21472;-74
2022/01/27 00:55:12;;;;;;;53.78;19.80;;;;;;;2.53;89.05;101285.62;1673012;84;20947;-74
2022/01/27 00:58:24;;;;;;;45.70;19.40;;;;;;;2.53;89.07;101281.79;1673061;85;21002;-74
2022/01/27 01:00:57;;;;;;;49.63;20.45;;;;;;;2.53;89.04;101272.45;1676135;84;20998;-74
2022/01/27 01:03:42;;;;;;;;;;;;;;;2.52;89.07;101280.06;1675510;84;20995;-74
2022/01/27 01:15:18;;;;;;;58.20;21.70;;;;;;;2.50;89.08;101280.02;1665666;85;21072;-74
2022/01/27 01:18:19;;;;;;;;;;;;;;;2.48;89.06;101275.28;1649632;85;21454;-74
2022/01/27 01:32:45;;;;;;;59.42;22.90;;;;;;;2.47;89.15;101256.09;1640353;85;21108;-73
2022/01/27 01:35:36;;;;;;;63.28;25.05;;;;;;;2.49;89.18;101265.94;1641211;85;21065;-73
2022/01/27 01:38:20;;;;;;;65.05;24.25;;;;;;;2.48;89.16;101249.76;1643515;84;20990;-74
2022/01/27 01:41:04;;;;;;;64.67;24.25;;;;;;;2.51;89.18;101245.14;1663912;85;21466;-74
2022/01/27 01:43:48;;;;;;;56.75;22.60;;;;;;;2.51;89.16;101243.46;1644100;82;20987;-74
2022/01/27 01:46:34;;;;;;;59.00;22.55;;;;;;;2.51;89.15;101243.46;1642492;87;20958;-74
2022/01/27 01:49:22;;;;;;;56.85;23.10;;;;;;;2.52;89.17;101237.53;1646370;85;21491;-73
2022/01/27 01:52:07;;;;;;;;;;;;;;;2.53;89.21;101239.27;1648661;85;20970;-74
2022/01/27 01:54:54;;;;;;;60.45;23.07;;;;;;;2.55;89.18;101231.64;1645422;85;20139;-74
2022/01/27 01:57:39;;;;;;;56.28;23.65;;;;;;;2.55;89.18;101213.77;1648887;84;21072;-74
2022/01/27 02:00:27;;;;;;;58.52;22.90;;;;;;;2.55;89.16;101217.19;1642696;86;21100;-74
2022/01/27 02:03:11;;;;;;;65.20;24.52;;;;;;;2.57;89.21;101216.82;1645515;86;20937;-74
2022/01/27 02:05:57;;;;;;;56.53;21.70;;;;;;;2.59;89.19;101220.28;1648994;85;20977;-74
2022/01/27 02:09:01;;;;;;;57.55;24.02;;;;;;;2.59;89.18;101221.55;1631564;85;20925;-74
2022/01/27 02:20:40;;;;;;;54.42;21.42;;;;;;;2.64;89.23;101200.80;1681844;84;138198;-74
2022/01/27 02:23:24;;;;;;;52.85;22.07;;;;;;;2.67;89.22;101198.73;1661385;84;20946;-74
2022/01/27 02:26:08;;;;;;;52.88;21.85;;;;;;;2.67;89.18;101191.08;1668057;85;20926;-74
2022/01/27 02:28:53;;;;;;;48.70;21.93;;;;;;;2.69;89.19;101188.56;1671236;85;20965;-74
2022/01/27 02:31:37;;;;;;;49.58;21.10;;;;;;;2.69;89.22;101179.63;1664234;85;21894;-74
2022/01/27 02:34:22;;;;;;;48.23;21.37;;;;;;;2.70;89.15;101178.39;1660267;85;20934;-74
2022/01/27 02:37:09;;;;;;;48.57;20.50;;;;;;;2.70;89.15;101170.73;1663184;85;20946;-74
2022/01/27 02:39:54;;;;;;;46.55;20.23;;;;;;;2.70;89.16;101170.73;1660072;85;20926;-74
2022/01/27 02:42:38;;;;;;;43.85;20.02;;;;;;;2.71;89.14;101174.15;1671119;85;20969;-74
2022/01/27 02:45:55;;;;;;;41.00;17.70;;;;;;;2.71;89.12;101169.91;1653416;84;20926;-73
2022/01/27 02:48:39;;;;;;;36.30;17.92;;;;;;;2.70;89.10;101173.28;1660662;86;20982;-74
2022/01/27 02:51:24;;;;;;;39.92;17.87;;;;;;;2.73;89.15;101155.91;1642568;85;20982;-74
2022/01/27 02:54:08;;;;;;;36.88;17.85;;;;;;;2.74;89.16;101166.56;1615395;88;20989;-74
2022/01/27 02:56:52;;;;;;;36.23;16.52;;;;;;;2.75;89.15;101165.73;1645264;84;20961;-74
2022/01/27 02:59:37;;;;;;;33.80;16.73;;;;;;;2.75;89.14;101164.47;1616838;86;20977;-74
2022/01/27 03:02:23;;;;;;;33.73;16.67;;;;;;;2.75;89.12;101155.11;1666799;85;20942;-74
2022/01/27 03:05:07;;;;;;;33.50;15.95;;;;;;;2.75;89.06;101148.73;1641734;87;20941;-74
2022/01/27 03:07:54;;;;;;;32.91;15.01;;;;;;;2.75;89.08;101144.03;882915;84;10017793;-73
2022/01/27 03:10:46;;;;;;;32.95;15.13;;;;;;;2.74;88.99;101139.75;1630870;86;20946;-74
2022/01/27 03:13:32;;;;;;;32.13;15.65;;;;;;;2.73;89.10;101134.20;1621655;87;21006;-74
2022/01/27 03:16:16;;;;;;;30.17;15.13;;;;;;;2.73;89.11;101113.36;1601351;87;21079;-73
2022/01/27 03:19:01;;;;;;;31.52;14.50;;;;;;;2.73;89.12;101127.41;1614015;88;20996;-74
2022/01/27 03:21:46;;;;;;;28.42;14.45;;;;;;;2.73;89.10;101125.27;1614020;88;21164;-74
2022/01/27 03:24:31;;;;;;;29.10;14.10;;;;;;;2.73;89.09;101115.05;1621592;87;21536;-74
2022/01/27 03:27:23;;;;;;;31.85;14.60;;;;;;;2.72;89.10;101117.15;1640701;87;21435;-74
2022/01/27 03:30:07;;;;;;;27.73;14.63;;;;;;;2.73;89.09;101115.05;1633815;86;21116;-74
2022/01/27 03:32:51;;;;;;;27.85;14.20;;;;;;;2.70;89.10;101105.63;1628189;85;20982;-74
2022/01/27 03:35:36;;;;;;;29.12;13.93;;;;;;;2.71;89.13;101105.21;1616350;88;21507;-74
2022/01/27 03:38:20;;;;;;;25.68;14.35;;;;;;;2.70;89.12;101108.17;1622653;85;20989;-74
2022/01/27 03:41:07;;;;;;;26.52;12.88;;;;;;;2.70;89.14;101103.48;1615707;88;21410;-74
2022/01/27 03:43:51;;;;;;;;;;;;;;;2.71;89.12;101102.66;1619006;88;20945;-74
2022/01/27 03:46:36;;;;;;;22.03;12.40;;;;;;;2.70;89.13;101098.37;1627513;87;20437;-74
2022/01/27 03:49:21;;;;;;;25.23;12.73;;;;;;;2.71;89.13;101093.72;1617333;87;20993;-73
2022/01/27 03:52:06;;;;;;;21.57;12.47;;;;;;;2.69;89.11;101085.16;1616898;87;21360;-73
2022/01/27 03:54:50;;;;;;;24.15;12.33;;;;;;;2.70;89.13;101085.20;1616436;87;21039;-74
2022/01/27 03:57:34;;;;;;;22.73;12.75;;;;;;;2.69;89.10;101091.13;1639659;87;20970;-73
2022/01/27 04:00:19;;;;;;;22.58;11.95;;;;;;;2.68;89.10;101085.58;1629026;86;20949;-74
2022/01/27 04:03:08;;;;;;;23.27;12.40;;;;;;;2.66;89.04;101079.56;1631389;87;21442;-74
2022/01/27 04:05:54;;;;;;;24.45;12.68;;;;;;;2.65;89.12;101083.81;1631597;86;20993;-74
2022/01/27 04:08:38;;;;;;;;;;;;;;;2.64;89.11;101079.53;1619369;87;20973;-73
2022/01/27 04:11:22;;;;;;;26.07;13.93;;;;;;;2.62;89.12;101079.05;1617285;87;20138;-73
2022/01/27 04:14:08;;;;;;;25.77;13.32;;;;;;;2.63;89.13;101083.33;1628033;87;20926;-74
2022/01/27 04:16:52;;;;;;;28.20;14.63;;;;;;;2.61;89.15;101084.98;1617210;87;20920;-74
2022/01/27 04:19:36;;;;;;;26.80;14.58;;;;;;;2.61;89.16;101077.32;1626161;87;20997;-74
2022/01/27 04:22:21;;;;;;;32.13;15.88;;;;;;;2.60;89.17;101079.02;1644169;85;20982;-74
2022/01/27 04:25:06;;;;;;;32.48;15.43;;;;;;;2.61;89.19;101076.91;1644765;86;20926;-74
2022/01/27 04:27:55;;;;;;;30.95;15.18;;;;;;;2.62;89.23;101062.04;1642566;86;20934;-74
2022/01/27 04:30:37;;;;;;;34.53;16.90;;;;;;;2.63;89.21;101053.97;1643190;86;20978;-74
2022/01/27 04:33:25;;;;;;;32.75;16.15;;;;;;;2.63;89.21;101039.92;1644232;87;20966;-74
2022/01/27 04:36:20;;;;;;;;;;;;;;;2.61;89.17;101047.55;1616853;86;20999;-74
2022/01/27 04:39:11;;;;;;;28.75;14.65;;;;;;;2.61;89.23;101041.58;1626197;87;20108;-74
2022/01/27 04:41:55;;;;;;;29.45;14.28;;;;;;;2.62;89.26;101043.31;1626612;86;20932;-73
2022/01/27 04:44:48;;;;;;;29.67;15.40;;;;;;;2.63;89.23;101036.09;1638161;86;20994;-74
2022/01/27 04:47:35;;;;;;;30.80;15.10;;;;;;;2.62;89.17;101035.65;1629151;86;20985;-74
2022/01/27 04:50:15;;;;;;;30.25;14.90;;;;;;;2.61;89.22;101029.68;1652859;86;20939;-74
2022/01/27 04:53:01;;;;;;;30.65;14.78;;;;;;;2.62;89.23;101031.41;1652773;86;20914;-74
2022/01/27 04:55:46;;;;;;;26.15;13.93;;;;;;;2.62;89.23;101025.44;1629976;86;20936;-74
2022/01/27 04:58:32;;;;;;;24.27;13.20;;;;;;;2.63;89.25;101015.67;1615452;87;20934;-74
2022/01/27 05:01:18;;;;;;;;;;;;;;;2.61;89.19;101002.02;1604119;88;20993;-74
2022/01/27 05:04:08;;;;;;;27.25;14.18;;;;;;;2.61;89.19;101004.56;1618713;87;20137;-74
2022/01/27 05:06:49;;;;;;;27.75;14.28;;;;;;;2.61;89.21;100993.94;1626033;87;21479;-74
2022/01/27 05:09:34;;;;;;;25.75;13.75;;;;;;;2.62;89.20;100988.01;1622270;86;20972;-74
2022/01/27 05:12:31;;;;;;;30.90;15.63;;;;;;;2.62;89.22;100980.77;1616307;87;305603;-74
2022/01/27 05:15:06;;;;;;;30.27;14.30;;;;;;;2.62;89.23;100975.66;1600025;87;21136;-74
2022/01/27 05:17:51;;;;;;;27.77;15.28;;;;;;;2.62;89.21;100966.72;1621902;88;21549;-74
2022/01/27 05:20:35;;;;;;;26.93;14.17;;;;;;;2.63;89.26;100962.06;1600121;86;20946;-73
2022/01/27 05:23:20;;;;;;;25.85;14.38;;;;;;;2.64;89.28;100966.34;1600573;88;21422;-74
2022/01/27 05:26:04;;;;;;;25.15;13.35;;;;;;;2.66;89.27;100954.06;1626779;86;20929;-74
2022/01/27 05:28:49;;;;;;;23.42;12.93;;;;;;;2.66;89.22;100948.09;1652882;86;21037;-74
2022/01/27 05:31:33;;;;;;;24.80;13.62;;;;;;;2.68;89.25;100957.92;1650365;86;20929;-74
2022/01/27 05:34:17;;;;;;;25.77;12.93;;;;;;;2.70;89.28;100964.34;1626195;86;21281;-74
2022/01/27 05:37:02;;;;;;;22.93;11.95;;;;;;;2.69;89.22;100966.03;1647570;86;20913;-74
2022/01/27 05:39:46;;;;;;;70.15;25.62;;;;;;;2.70;89.25;100963.92;1631598;86;21525;-74
2022/01/27 05:42:31;;;;;;;21.55;12.37;;;;;;;2.70;89.23;100954.98;1635891;86;20977;-74
2022/01/27 05:45:15;;;;;;;21.45;12.35;;;;;;;2.71;89.30;100949.05;1632390;86;20926;-74
2022/01/27 05:48:00;;;;;;;19.42;11.57;;;;;;;2.73;89.28;100944.84;1638960;85;21528;-73
2022/01/27 05:50:44;;;;;;;20.02;11.28;;;;;;;2.72;89.23;100949.91;1627097;87;21040;-74
2022/01/27 05:53:30;;;;;;;20.40;10.85;;;;;;;2.73;89.29;100943.98;1633460;86;21396;-73
2022/01/27 05:56:14;;;;;;;17.60;10.78;;;;;;;2.71;89.29;100945.63;1651899;85;21520;-73
2022/01/27 05:58:59;;;;;;;20.55;11.40;;;;;;;2.71;89.31;100939.25;1648097;85;20925;-73
2022/01/27 06:01:43;;;;;;;17.48;10.32;;;;;;;2.73;89.33;100923.55;1656804;85;20937;-73
2022/01/27 06:04:27;;;;;;;24.45;11.10;;;;;;;2.73;89.29;100915.89;1630502;87;20974;-73
2022/01/27 06:07:12;;;;;;;21.25;12.30;;;;;;;2.74;89.35;100917.20;1651955;85;21401;-74
2022/01/27 06:09:57;;;;;;;19.80;12.18;;;;;;;2.75;89.34;100905.30;1641581;84;21779;-74
2022/01/27 06:12:56;;;;;;;21.55;12.33;;;;;;;2.76;89.31;100903.19;1637481;86;20937;-74
2022/01/27 06:15:40;;;;;;;21.68;12.35;;;;;;;2.73;89.27;100898.88;1651261;86;20954;-74
2022/01/27 06:18:24;;;;;;;19.37;11.93;;;;;;;2.71;89.24;100890.73;1653455;86;20931;-73
2022/01/27 06:21:10;;;;;;;22.15;13.15;;;;;;;2.69;89.29;100865.59;1656880;86;20931;-73
2022/01/27 06:23:55;;;;;;;21.35;12.75;;;;;;;2.69;89.27;100877.08;1642897;86;20938;-74
2022/01/27 06:26:39;;;;;;;21.70;13.20;;;;;;;2.69;89.34;100877.08;1628656;87;21846;-73
2022/01/27 06:29:23;;;;;;;22.87;14.10;;;;;;;2.69;89.33;100865.18;1651435;84;20917;-74
2022/01/27 06:32:08;;;;;;;24.40;14.38;;;;;;;2.68;89.33;100862.18;1652508;85;21052;-74
2022/01/27 06:34:53;;;;;;;22.27;12.68;;;;;;;2.66;89.29;100858.32;1632644;86;20969;-73
2022/01/27 06:37:40;;;;;;;21.48;12.90;;;;;;;2.65;89.33;100861.70;1635274;87;20982;-74
2022/01/27 06:40:24;;;;;;;20.62;12.47;;;;;;;2.65;89.34;100856.59;1617579;87;20925;-74
2022/01/27 06:43:10;;;;;;;19.37;11.57;;;;;;;2.65;89.32;100857.02;1632105;85;21152;-74
2022/01/27 06:45:55;;;;;;;16.73;10.85;;;;;;;2.64;89.34;100853.59;1640603;85;21187;-74
2022/01/27 06:48:40;;;;;;;16.73;10.70;;;;;;;2.62;89.33;100842.50;1668161;83;21497;-73
2022/01/27 06:51:26;;;;;;;17.23;11.33;;;;;;;2.62;89.36;100841.64;1632871;87;21128;-74
2022/01/27 06:54:10;;;;;;;18.25;11.73;;;;;;;2.62;89.32;100839.08;1628188;85;21116;-74
2022/01/27 06:56:55;;;;;;;17.15;11.03;;;;;;;2.60;89.35;100823.73;1611427;87;21124;-73
2022/01/27 06:59:39;;;;;;;16.55;10.35;;;;;;;2.58;89.31;100813.94;1626593;85;21593;-73
2022/01/27 07:02:24;;;;;;;15.55;10.75;;;;;;;2.58;89.35;100804.14;1620723;86;20976;-73
2022/01/27 07:05:13;;;;;;;18.60;11.53;;;;;;;2.59;89.38;100807.14;1613544;87;21086;-74
2022/01/27 07:07:56;;;;;;;15.45;10.95;;;;;;;2.58;89.37;100797.35;1625719;86;20958;-74
2022/01/27 07:10:40;;;;;;;16.42;10.50;;;;;;;2.58;89.39;100793.52;1625969;87;20950;-74
2022/01/27 07:13:25;;;;;;;15.20;9.85;;;;;;;2.58;89.37;100792.25;1639918;86;20978;-74
2022/01/27 07:16:10;;;;;;;14.55;10.28;;;;;;;2.59;89.39;100798.21;1634447;85;20978;-74
2022/01/27 07:18:55;;;;;;;14.05;9.60;;;;;;;2.59;89.38;100787.59;1638736;86;20946;-74
2022/01/27 07:21:39;;;;;;;14.63;10.05;;;;;;;2.59;89.37;100786.31;1638747;86;20982;-74
2022/01/27 07:24:23;;;;;;;13.10;9.15;;;;;;;2.59;89.37;100777.38;1650553;86;20950;-74
2022/01/27 07:27:09;;;;;;;12.75;9.15;;;;;;;2.60;89.37;100768.02;1657528;85;21369;-74
2022/01/27 07:29:53;;;;;;;13.00;9.23;;;;;;;2.60;89.41;100769.30;1617221;86;20978;-74
2022/01/27 07:32:38;;;;;;;12.00;8.45;;;;;;;2.61;89.40;100773.13;1629755;86;20946;-74
2022/01/27 07:35:23;;;;;;;9.88;7.97;;;;;;;2.60;89.40;100779.06;1646291;84;20942;-74
2022/01/27 07:38:07;;;;;;;12.45;8.20;;;;;;;2.61;89.43;100776.95;1639800;86;21601;-74
2022/01/27 07:40:52;;;;;;;10.10;7.83;;;;;;;2.61;89.41;100768.44;1643771;85;20926;-74
2022/01/27 07:43:36;;;;;;;11.70;7.95;;;;;;;2.61;89.43;100780.78;1652412;85;20994;-74
2022/01/27 07:46:20;;;;;;;11.68;8.33;;;;;;;2.61;89.45;100776.09;1652558;85;20966;-74
2022/01/27 07:49:05;;;;;;;11.33;7.17;;;;;;;2.62;89.43;100775.27;1619206;86;20990;-74
2022/01/27 07:51:50;;;;;;;12.28;7.12;;;;;;;2.61;89.44;100766.75;1652335;85;21541;-74
2022/01/27 07:54:35;;;;;;;8.08;7.25;;;;;;;2.61;89.45;100766.75;1652093;85;20951;-74
2022/01/27 07:57:19;;;;;;;9.33;6.65;;;;;;;2.61;89.47;100762.91;1651282;86;20930;-74
2022/01/27 08:00:06;;;;;;;7.83;6.22;;;;;;;2.61;89.45;100755.26;1643540;86;21046;-72
2022/01/27 08:02:50;;;;;;;10.48;7.20;;;;;;;2.60;89.46;100738.67;1638806;85;20926;-73
2022/01/27 08:05:35;;;;;;;9.73;6.58;;;;;;;2.60;89.49;100752.70;1654753;84;20935;-72
2022/01/27 08:08:19;;;;;;;8.50;6.22;;;;;;;2.61;89.50;100750.56;1648040;85;21218;-73
2022/01/27 08:11:04;;;;;;;8.10;5.87;;;;;;;2.61;89.52;100746.73;1654603;85;21069;-74
2022/01/27 08:13:49;;;;;;;6.20;5.05;;;;;;;2.63;89.56;100745.08;1641608;86;21548;-73
2022/01/27 08:16:34;;;;;;;8.28;5.70;;;;;;;2.63;89.55;100737.00;1645242;85;21132;-73
2022/01/27 08:19:19;;;;;;;6.95;5.17;;;;;;;2.65;89.55;100744.27;1652880;85;21073;-74
2022/01/27 08:22:03;;;;;;;8.13;5.37;;;;;;;2.65;89.51;100737.03;1638131;85;21069;-74
2022/01/27 08:24:48;;;;;;;7.37;5.05;;;;;;;2.66;89.52;100734.92;1629286;86;21113;-74
2022/01/27 08:27:33;;;;;;;6.85;5.45;;;;;;;2.65;89.52;100726.41;1624702;87;21077;-73
2022/01/27 08:30:19;;;;;;;5.40;4.83;;;;;;;2.65;89.59;100727.67;1635005;86;20974;-73
2022/01/27 08:33:14;;;;;;;5.75;4.47;;;;;;;2.65;89.61;100723.84;1649645;85;21463;-73
2022/01/27 08:35:53;;;;;;;7.78;5.47;;;;;;;2.64;89.52;100725.95;1647609;86;20951;-73
2022/01/27 08:38:43;;;;;;;7.25;5.20;;;;;;;2.64;89.53;100717.02;1636360;85;20935;-73
2022/01/27 08:41:23;;;;;;;;;;;;;;;2.65;89.58;100712.36;1640161;85;20953;-73
2022/01/27 08:44:09;;;;;;;4.85;4.22;;;;;;;2.66;89.59;100704.28;1634335;86;20531;-77
2022/01/27 08:46:54;;;;;;;6.00;4.70;;;;;;;2.65;89.56;100697.05;1589366;86;195498;-77
2022/01/27 08:49:38;;;;;;;6.72;4.58;;;;;;;2.68;89.63;100693.69;1650988;85;21446;-77
2022/01/27 08:52:24;;;;;;;5.22;3.87;;;;;;;2.69;89.59;100689.44;1648002;86;20955;-77
2022/01/27 08:55:10;;;;;;;6.65;5.15;;;;;;;2.70;89.61;100686.05;1632051;85;21449;-77
2022/01/27 08:57:54;;;;;;;6.28;5.28;;;;;;;2.71;89.59;100685.22;1638860;86;21416;-78
2022/01/27 09:00:40;;;;;;;6.67;5.03;;;;;;;2.72;89.58;100685.66;1642708;85;20947;-77
2022/01/27 09:03:24;;;;;;;7.35;5.47;;;;;;;2.71;89.54;100678.84;1650829;85;20955;-77
2022/01/27 09:06:09;;;;;;;8.53;6.03;;;;;;;2.71;89.56;100669.48;1655836;85;20955;-77
2022/01/27 09:08:54;;;;;;;8.13;5.80;;;;;;;2.71;89.58;100669.48;1656913;85;20980;-77
2022/01/27 09:11:43;;;;;;;6.30;5.70;;;;;;;2.72;89.56;100666.52;1657610;85;20968;-77
2022/01/27 09:14:29;;;;;;;;;;;;;;;2.71;89.54;100669.48;1662246;85;20936;-80
2022/01/27 09:17:14;;;;;;;8.85;5.80;;;;;;;2.69;89.52;100662.63;1665755;85;20405;-74
2022/01/27 09:19:59;;;;;;;8.30;6.37;;;;;;;2.69;89.55;100653.70;1648431;85;20924;-73
2022/01/27 09:22:44;;;;;;;8.30;6.70;;;;;;;2.70;89.53;100649.03;1649500;86;21058;-73
2022/01/27 09:25:33;;;;;;;8.93;8.03;;;;;;;2.68;89.55;100653.25;1651241;85;20998;-75
2022/01/27 09:28:16;;;;;;;10.80;6.25;;;;;;;2.66;89.58;100651.53;1648574;85;21103;-73
2022/01/27 09:31:01;;;;;;;8.13;6.35;;;;;;;2.68;89.61;100637.52;1651945;85;21134;-74
2022/01/27 09:33:47;;;;;;;9.28;6.30;;;;;;;2.65;89.51;100642.16;1654646;85;21552;-75
2022/01/27 09:36:32;;;;;;;8.53;6.67;;;;;;;2.63;89.55;100640.00;1649747;85;21102;-75
2022/01/27 09:39:19;;;;;;;8.60;7.03;;;;;;;2.63;89.55;100645.52;1651205;85;21321;-75
2022/01/27 09:42:07;;;;;;;8.28;7.00;;;;;;;2.63;89.60;100642.97;1658872;85;21106;-75
2022/01/27 09:44:53;;;;;;;10.75;7.10;;;;;;;2.63;89.55;100638.72;1670688;85;20988;-75
2022/01/27 09:47:41;;;;;;;;;;;;;;;2.61;89.55;100632.73;1661571;84;20920;-75
2022/01/27 09:50:46;;;;;;;10.85;7.75;;;;;;;2.62;89.59;100633.59;1649103;86;20107;-75
2022/01/27 09:57:03;;;;;;;10.30;7.35;;;;;;;2.61;89.59;100616.55;1622514;85;21073;-76
2022/01/27 09:59:48;;;;;;;11.73;7.95;;;;;;;2.59;89.57;100606.36;1613228;86;21116;-76
2022/01/27 10:02:32;;;;;;;11.38;8.15;;;;;;;2.59;89.57;100599.11;1649166;84;21560;-76
2022/01/27 10:05:24;;;;;;;9.15;7.10;;;;;;;2.58;89.63;100602.50;1663116;85;21123;-76
2022/01/27 10:08:18;;;;;;;11.63;7.78;;;;;;;2.57;89.72;100597.81;1655868;85;21099;-76
2022/01/27 10:11:16;;;;;;;10.95;7.60;;;;;;;2.58;89.82;100586.77;1655605;84;21077;-76
2022/01/27 10:14:23;;;;;;;10.20;7.45;;;;;;;2.59;89.81;100582.11;1673741;84;21130;-74
2022/01/27 10:17:13;;;;;;;8.73;7.72;;;;;;;2.58;89.85;100585.49;1667125;84;21109;-75
2022/01/27 10:19:58;;;;;;;11.40;7.60;;;;;;;2.58;89.90;100580.80;1669863;84;20952;-75
2022/01/27 10:22:42;;;;;;;12.28;8.68;;;;;;;2.56;89.82;100569.30;1664026;84;20957;-75
2022/01/27 10:25:46;;;;;;;12.98;7.78;;;;;;;2.56;89.86;100566.74;1639381;85;21646;-75
2022/01/27 10:28:46;;;;;;;12.55;9.35;;;;;;;2.56;89.95;100569.30;1653437;84;20979;-75
2022/01/27 10:31:28;;;;;;;12.50;8.57;;;;;;;2.57;90.11;100573.56;1631944;86;20976;-74
2022/01/27 10:34:15;;;;;;;12.75;8.55;;;;;;;2.57;90.20;100558.25;1628859;86;21692;-75
2022/01/27 10:36:59;;;;;;;9.35;7.83;;;;;;;2.56;90.21;100548.87;1651811;86;20960;-75
2022/01/27 10:39:48;;;;;;;11.55;7.92;;;;;;;2.57;90.24;100549.73;1627422;87;21457;-75
2022/01/27 10:42:37;;;;;;;11.12;8.88;;;;;;;2.58;90.30;100550.17;1651200;86;20932;-75
2022/01/27 10:45:22;;;;;;;12.25;9.03;;;;;;;2.58;90.34;100538.69;1626012;87;21083;-75
2022/01/27 10:48:19;;;;;;;13.20;8.83;;;;;;;2.58;90.28;100544.66;1625798;86;21583;-75
2022/01/27 10:51:09;;;;;;;11.38;8.73;;;;;;;2.57;90.30;100539.11;1644456;86;20956;-75
2022/01/27 10:54:17;;;;;;;11.18;8.88;;;;;;;2.57;90.34;100544.22;1655916;85;20970;-75
2022/01/27 10:56:53;;;;;;;9.88;8.40;;;;;;;2.59;90.35;100542.96;1677847;83;20940;-75
2022/01/27 10:59:40;;;;;;;12.18;9.35;;;;;;;2.59;90.42;100529.78;1681307;83;20956;-75
2022/01/27 11:02:25;;;;;;;12.58;8.70;;;;;;;2.60;90.41;100523.80;1710357;83;20972;-75
2022/01/27 11:05:23;;;;;;;12.60;8.78;;;;;;;2.61;90.41;100525.52;1698305;83;21811;-75
2022/01/27 11:08:08;;;;;;;15.72;10.28;;;;;;;2.64;90.40;100504.29;1681871;83;21027;-75
2022/01/27 11:10:53;;;;;;;15.80;9.90;;;;;;;2.66;90.33;100512.83;1696214;83;21377;-75
2022/01/27 11:13:38;;;;;;;14.20;10.25;;;;;;;2.66;90.27;100515.37;1699620;83;21366;-75
2022/01/27 11:16:29;;;;;;;10.20;8.30;;;;;;;2.70;90.22;100507.34;1681531;84;20984;-74
2022/01/27 11:19:18;;;;;;;11.70;9.15;;;;;;;2.71;90.06;100500.98;1684130;84;20976;-72
2022/01/27 11:22:23;;;;;;;15.93;9.75;;;;;;;2.72;89.99;100496.74;1689247;84;21098;-73
2022/01/27 11:27:50;;;;;;;14.40;9.95;;;;;;;2.75;89.96;100486.57;1691599;83;21111;-72
2022/01/27 11:31:07;;;;;;;10.35;9.05;;;;;;;2.76;89.92;100491.70;1689765;84;21937;-72
2022/01/27 11:34:06;;;;;;;13.48;9.58;;;;;;;2.78;89.94;100494.27;1693280;83;21928;-73
2022/01/27 11:37:03;;;;;;;13.38;10.18;;;;;;;2.77;89.90;100489.59;1672455;84;21611;-73
2022/01/27 11:39:55;;;;;;;14.93;10.10;;;;;;;2.77;89.91;100472.13;1671009;84;20899;-73
2022/01/27 11:43:00;;;;;;;13.18;9.10;;;;;;;2.75;89.88;100486.57;1697313;83;20991;-73
2022/01/27 11:45:52;;;;;;;13.30;9.25;;;;;;;2.74;89.90;100474.23;1690379;83;22039;-74
2022/01/27 11:48:37;;;;;;;13.90;9.85;;;;;;;2.74;89.89;100460.19;1620598;86;20918;-74
2022/01/27 11:51:22;;;;;;;13.13;9.53;;;;;;;2.74;89.88;100462.73;1640731;85;21368;-74
2022/01/27 11:54:12;;;;;;;13.45;9.83;;;;;;;2.73;89.86;100460.16;1626472;85;21465;-74
2022/01/27 11:56:57;;;;;;;11.25;8.93;;;;;;;2.72;89.89;100454.20;1666699;85;21091;-73
2022/01/27 11:59:42;;;;;;;11.95;9.25;;;;;;;2.73;89.93;100458.47;1647174;85;21400;-73
2022/01/27 12:02:26;;;;;;;14.98;9.50;;;;;;;2.74;89.90;100444.00;1656781;84;20947;-73
2022/01/27 12:05:13;;;;;;;12.73;9.60;;;;;;;2.73;89.88;100450.80;1641950;84;20974;-75
2022/01/27 12:08:20;;;;;;;13.05;9.28;;;;;;;2.73;89.92;100448.67;1630280;87;21453;-74
2022/01/27 12:11:08;;;;;;;10.60;8.65;;;;;;;2.75;89.95;100436.78;1598338;88;20957;-74
2022/01/27 12:14:00;;;;;;;;;;;;;;;2.77;89.97;100435.11;1637269;86;20940;-76
2022/01/27 12:20:07;;;;;;;9.98;7.62;;;;;;;2.79;89.98;100425.36;1637673;86;20923;-73
2022/01/27 12:23:00;;;;;;;12.33;9.28;;;;;;;2.82;89.95;100420.29;1649581;85;20976;-72
2022/01/27 12:25:48;;;;;;;13.40;9.90;;;;;;;2.83;89.93;100411.79;1630347;85;20972;-72
2022/01/27 12:28:35;;;;;;;15.80;9.48;;;;;;;2.84;89.95;100404.56;1613072;87;20981;-73
2022/01/27 12:31:21;;;;;;;14.58;10.18;;;;;;;2.87;89.94;100395.67;1612827;87;21018;-73
2022/01/27 12:34:06;;;;;;;11.93;9.63;;;;;;;2.88;89.96;100373.55;1638605;87;20988;-73
2022/01/27 12:37:04;;;;;;;11.85;8.20;;;;;;;2.88;89.97;100370.56;1643869;85;21114;-74
2022/01/27 12:39:58;;;;;;;13.10;8.85;;;;;;;2.92;89.97;100377.84;1608225;87;21079;-74
2022/01/27 12:43:00;;;;;;;13.93;9.03;;;;;;;2.91;89.93;100371.88;1647650;85;21063;-73
2022/01/27 12:45:44;;;;;;;14.53;9.00;;;;;;;2.91;89.93;100366.77;1636319;85;21634;-73
2022/01/27 12:48:29;;;;;;;11.35;8.75;;;;;;;2.92;89.96;100365.08;1634425;85;21143;-77
2022/01/27 12:51:14;;;;;;;10.95;8.33;;;;;;;2.92;89.95;100354.86;1652457;85;21055;-73
2022/01/27 12:54:02;;;;;;;11.75;8.50;;;;;;;2.92;89.92;100358.69;1648865;85;21121;-76
2022/01/27 12:56:46;;;;;;;12.28;7.70;;;;;;;2.91;89.91;100359.53;1645104;85;21389;-76
2022/01/27 12:59:38;;;;;;;10.55;8.75;;;;;;;2.91;89.92;100356.98;1642475;87;21425;-75
2022/01/27 13:02:25;;;;;;;13.03;9.13;;;;;;;2.93;89.95;100353.60;1616156;87;21340;-75
2022/01/27 13:05:10;;;;;;;13.28;8.70;;;;;;;2.94;89.93;100364.67;1636964;87;20941;-75
2022/01/27 13:07:55;;;;;;;11.63;8.43;;;;;;;2.93;89.88;100347.22;1632184;87;21431;-75
2022/01/27 13:10:50;;;;;;;14.93;11.48;;;;;;;2.93;89.90;100344.66;1626368;87;20991;-75
2022/01/27 13:13:37;;;;;;;26.00;15.45;;;;;;;2.94;89.96;100345.52;1633444;85;20917;-73
2022/01/27 13:16:24;;;;;;;13.20;9.70;;;;;;;2.94;89.93;100330.20;1640650;85;21394;-74
2022/01/27 13:19:20;;;;;;;14.43;9.13;;;;;;;2.93;89.92;100338.28;1636274;85;21014;-72
2022/01/27 13:22:03;;;;;;;17.50;11.78;;;;;;;2.94;89.91;100328.50;1641968;85;21070;-71
2022/01/27 13:24:53;;;;;;;16.12;10.28;;;;;;;2.93;89.91;100330.62;1631778;85;21672;-74
2022/01/27 13:27:36;;;;;;;15.08;9.78;;;;;;;2.94;89.95;100328.92;1642077;86;21316;-75
2022/01/27 13:30:21;;;;;;;18.48;12.20;;;;;;;2.94;89.93;100322.12;1638158;85;21570;-73
2022/01/27 13:33:11;;;;;;;15.60;10.13;;;;;;;2.94;89.95;100317.01;1648342;85;21123;-71
2022/01/27 13:35:58;;;;;;;16.57;10.98;;;;;;;2.94;89.95;100308.07;1652403;85;21184;-71
2022/01/27 13:41:50;;;;;;;18.75;11.43;;;;;;;2.97;90.00;100310.66;1612210;85;21107;-70